createdAt,value
2022-07-29T00:02:27.224Z,55.00
2022-07-29T00:04:54.133Z,54.74
2022-07-29T00:07:21.398Z,56.89
2022-07-29T00:09:50.839Z,56.51
2022-07-29T00:12:25.191Z,54.29
2022-07-29T00:14:57.290Z,56.67
2022-07-29T00:17:25.144Z,57.10
2022-07-29T00:19:52.244Z,55.90
2022-07-29T00:22:19.726Z,55.16
2022-07-29T00:24:49.051Z,54.86
2022-07-29T00:27:15.745Z,56.72
2022-07-29T00:29:42.492Z,57.53
2022-07-29T00:32:09.369Z,57.29
2022-07-29T00:34:55.110Z,56.27
2022-07-29T00:37:22.005Z,56.32
2022-07-29T00:39:48.796Z,57.89
2022-07-29T00:42:15.654Z,58.14
2022-07-29T00:44:42.995Z,59.62
2022-07-29T00:47:11.807Z,58.20
2022-07-29T00:49:40.857Z,58.34
2022-07-29T00:52:09.093Z,58.65
2022-07-29T00:54:37.417Z,57.29
2022-07-29T00:57:10.801Z,59.10
2022-07-29T00:59:37.545Z,59.65
2022-07-29T01:02:04.615Z,59.92
2022-07-29T01:04:32.583Z,60.03
2022-07-29T01:07:00.773Z,58.96
2022-07-29T01:09:42.862Z,58.94
2022-07-29T01:12:20.085Z,57.93
2022-07-29T01:14:49.027Z,58.09
2022-07-29T01:17:23.122Z,58.38
2022-07-29T01:19:54.015Z,58.57
2022-07-29T01:22:23.719Z,58.60
2022-07-29T01:25:36.218Z,59.06
2022-07-29T01:28:33.029Z,59.05
2022-07-29T01:31:03.848Z,59.03
2022-07-29T01:33:51.831Z,59.45
2022-07-29T01:36:25.209Z,59.25
2022-07-29T01:39:13.598Z,59.12
2022-07-29T01:41:50.307Z,59.86
2022-07-29T01:44:48.056Z,59.54
2022-07-29T01:47:24.484Z,59.24
2022-07-29T01:49:55.911Z,59.46
2022-07-29T01:52:35.445Z,59.92
2022-07-29T01:55:09.073Z,60.12
2022-07-29T01:57:39.008Z,60.30
2022-07-29T02:00:06.759Z,61.45
2022-07-29T02:02:42.188Z,61.32
2022-07-29T02:05:13.707Z,61.26
2022-07-29T02:07:43.236Z,61.38
2022-07-29T02:10:11.721Z,61.27
2022-07-29T02:12:40.311Z,61.49
2022-07-29T02:15:08.619Z,61.32
2022-07-29T02:17:59.533Z,61.43
2022-07-29T02:20:28.675Z,61.73
2022-07-29T02:22:58.450Z,61.79
2022-07-29T02:25:36.998Z,61.89
2022-07-29T02:28:07.709Z,62.13
2022-07-29T02:30:37.737Z,62.43
2022-07-29T02:33:06.421Z,62.84
2022-07-29T02:35:34.546Z,62.93
2022-07-29T02:38:22.888Z,62.68
2022-07-29T02:40:51.797Z,64.19
2022-07-29T02:43:20.241Z,64.59
2022-07-29T02:45:52.102Z,64.63
2022-07-29T02:48:23.443Z,64.15
2022-07-29T02:50:55.343Z,63.69
2022-07-29T02:53:27.627Z,63.88
2022-07-29T02:55:58.289Z,64.14
2022-07-29T02:58:39.247Z,64.49
2022-07-29T03:01:21.098Z,65.12
2022-07-29T03:03:50.394Z,65.70
2022-07-29T03:06:31.071Z,65.51
2022-07-29T03:09:12.987Z,65.44
2022-07-29T03:11:50.017Z,66.22
2022-07-29T03:14:20.262Z,66.43
2022-07-29T03:16:48.168Z,66.38
2022-07-29T03:19:15.542Z,66.47
2022-07-29T03:21:42.293Z,66.40
2022-07-29T03:24:10.764Z,66.53
2022-07-29T03:26:37.931Z,66.88
2022-07-29T03:29:04.817Z,66.97
2022-07-29T03:31:32.175Z,67.00
2022-07-29T03:34:00.577Z,67.04
2022-07-29T03:36:27.466Z,67.04
2022-07-29T03:38:54.376Z,66.66
2022-07-29T03:41:24.060Z,66.90
2022-07-29T03:43:52.474Z,66.67
2022-07-29T03:46:24.216Z,66.29
2022-07-29T03:48:57.528Z,65.17
2022-07-29T03:51:34.041Z,63.91
2022-07-29T03:54:07.837Z,62.92
2022-07-29T03:56:40.946Z,61.63
2022-07-29T03:59:08.682Z,60.50
2022-07-29T04:01:36.438Z,57.75
2022-07-29T04:04:04.243Z,56.31
2022-07-29T04:06:45.807Z,56.49
2022-07-29T04:09:15.390Z,57.13
2022-07-29T04:12:02.060Z,57.54
2022-07-29T04:14:29.832Z,57.14
2022-07-29T04:16:56.568Z,52.86
2022-07-29T04:19:23.603Z,49.96
2022-07-29T04:21:50.605Z,47.71
2022-07-29T04:24:17.840Z,44.65
2022-07-29T04:26:47.105Z,43.27
2022-07-29T04:29:15.353Z,42.44
2022-07-29T04:31:42.831Z,39.84
2022-07-29T04:34:10.597Z,39.72
2022-07-29T04:36:37.342Z,39.50
2022-07-29T04:39:04.660Z,40.34
2022-07-29T04:41:33.335Z,39.05
2022-07-29T04:44:06.866Z,38.69
2022-07-29T04:46:34.866Z,37.07
2022-07-29T04:49:02.362Z,36.31
2022-07-29T04:51:29.187Z,34.44
2022-07-29T04:53:55.896Z,32.85
2022-07-29T04:56:22.859Z,33.61
2022-07-29T04:58:49.573Z,33.50
2022-07-29T05:01:16.461Z,33.94
2022-07-29T05:03:43.349Z,32.49
2022-07-29T05:06:10.036Z,32.21
2022-07-29T05:08:36.762Z,30.17
2022-07-29T05:11:11.464Z,30.63
2022-07-29T05:13:45.986Z,30.17
2022-07-29T05:16:14.358Z,30.60
2022-07-29T05:18:41.903Z,28.77
2022-07-29T05:21:08.619Z,28.47
2022-07-29T05:23:35.310Z,28.45
2022-07-29T05:26:02.063Z,27.98
2022-07-29T05:28:28.819Z,28.12
2022-07-29T05:30:55.598Z,28.56
2022-07-29T05:33:35.732Z,28.36
2022-07-29T05:36:09.485Z,26.91
2022-07-29T05:38:37.481Z,26.68
2022-07-29T05:41:05.622Z,27.63
2022-07-29T05:43:32.789Z,26.44
2022-07-29T05:45:59.938Z,25.85
2022-07-29T05:48:26.802Z,25.57
2022-07-29T05:50:53.852Z,26.48
2022-07-29T05:53:21.060Z,26.98
2022-07-29T05:55:48.961Z,28.52
2022-07-29T05:58:15.857Z,27.13
2022-07-29T06:00:42.907Z,26.54
2022-07-29T06:03:09.574Z,28.18
2022-07-29T06:05:36.510Z,27.25
2022-07-29T06:08:03.439Z,27.40
2022-07-29T06:10:30.383Z,25.93
2022-07-29T06:12:57.451Z,27.70
2022-07-29T06:15:24.671Z,27.07
2022-07-29T06:18:00.222Z,26.77
2022-07-29T06:20:34.423Z,25.92
2022-07-29T06:23:02.351Z,25.60
2022-07-29T06:25:35.740Z,27.28
2022-07-29T06:28:02.455Z,26.38
2022-07-29T06:30:29.812Z,26.41
2022-07-29T06:32:56.650Z,25.88
2022-07-29T06:35:42.091Z,25.86
2022-07-29T06:38:25.133Z,25.30
2022-07-29T06:41:06.816Z,25.13
2022-07-29T06:43:50.272Z,26.32
2022-07-29T06:46:20.703Z,25.90
2022-07-29T06:48:48.738Z,25.26
2022-07-29T06:51:15.912Z,25.12
2022-07-29T06:53:59.850Z,26.13
2022-07-29T06:56:38.453Z,26.44
2022-07-29T06:59:06.647Z,25.90
2022-07-29T07:01:33.515Z,26.69
2022-07-29T07:04:00.206Z,27.34
2022-07-29T07:06:27.070Z,28.88
2022-07-29T07:08:53.780Z,28.38
2022-07-29T07:11:20.730Z,28.07
2022-07-29T07:13:47.567Z,27.04
2022-07-29T07:16:14.750Z,27.05
2022-07-29T07:18:41.610Z,27.27
2022-07-29T07:21:09.482Z,28.58
2022-07-29T07:23:36.269Z,29.65
2022-07-29T07:26:04.049Z,30.02
2022-07-29T07:28:30.843Z,29.28
2022-07-29T07:30:57.575Z,30.01
2022-07-29T07:33:24.319Z,31.07
2022-07-29T07:35:51.140Z,33.61
2022-07-29T07:38:18.088Z,33.66
2022-07-29T07:40:44.916Z,33.25
2022-07-29T07:43:12.288Z,34.07
2022-07-29T07:45:40.357Z,33.47
2022-07-29T07:48:07.163Z,33.98
2022-07-29T07:50:33.996Z,33.52
2022-07-29T07:53:03.131Z,34.38
2022-07-29T07:55:42.427Z,34.79
2022-07-29T07:58:16.762Z,36.13
2022-07-29T08:00:43.534Z,36.54
2022-07-29T08:03:17.223Z,37.17
2022-07-29T08:05:44.408Z,36.46
2022-07-29T08:08:11.329Z,37.17
2022-07-29T08:10:53.339Z,36.86
2022-07-29T08:13:22.082Z,36.67
2022-07-29T08:15:58.604Z,36.69
2022-07-29T08:18:26.682Z,36.49
2022-07-29T08:20:53.816Z,35.91
2022-07-29T08:23:20.825Z,35.51
2022-07-29T08:25:47.587Z,35.87
2022-07-29T08:28:18.089Z,35.40
2022-07-29T08:30:45.009Z,36.01
2022-07-29T08:33:11.799Z,37.04
2022-07-29T08:35:40.068Z,37.41
2022-07-29T08:38:06.910Z,38.04
2022-07-29T08:40:33.680Z,37.54
2022-07-29T08:43:08.522Z,36.83
2022-07-29T08:45:47.309Z,36.09
2022-07-29T08:48:15.307Z,35.30
2022-07-29T08:50:43.605Z,35.53
2022-07-29T08:53:15.539Z,35.03
2022-07-29T08:55:51.400Z,34.40
2022-07-29T08:58:23.282Z,35.30
2022-07-29T09:00:56.879Z,35.46
2022-07-29T09:03:28.297Z,35.35
2022-07-29T09:05:55.353Z,33.97
2022-07-29T09:08:22.494Z,33.71
2022-07-29T09:10:52.765Z,34.53
2022-07-29T09:13:19.547Z,34.45
2022-07-29T09:15:46.363Z,34.64
2022-07-29T09:18:39.591Z,35.21
2022-07-29T09:21:27.263Z,34.77
2022-07-29T09:24:14.636Z,34.53
2022-07-29T09:26:43.487Z,34.16
2022-07-29T09:29:16.300Z,33.78
2022-07-29T09:31:48.179Z,33.92
2022-07-29T09:34:17.024Z,35.36
2022-07-29T09:36:46.231Z,34.35
2022-07-29T09:39:15.468Z,35.12
2022-07-29T09:41:53.885Z,34.85
2022-07-29T09:44:22.393Z,34.38
2022-07-29T09:46:58.886Z,34.79
2022-07-29T09:49:26.240Z,34.21
2022-07-29T09:52:08.319Z,34.67
2022-07-29T09:54:39.027Z,33.32
2022-07-29T09:57:22.072Z,34.41
2022-07-29T10:00:10.436Z,34.72
2022-07-29T10:02:41.802Z,35.17
2022-07-29T10:05:36.337Z,34.20
2022-07-29T10:08:04.162Z,35.16
2022-07-29T10:10:36.903Z,32.89
2022-07-29T10:13:15.835Z,31.92
2022-07-29T10:15:47.291Z,31.95
2022-07-29T10:18:15.567Z,33.87
2022-07-29T10:20:42.649Z,32.76
2022-07-29T10:23:10.627Z,32.47
2022-07-29T10:25:37.994Z,33.00
2022-07-29T10:28:06.705Z,32.66
2022-07-29T10:30:33.719Z,33.34
2022-07-29T10:33:27.795Z,32.97
2022-07-29T10:36:24.693Z,32.77
2022-07-29T10:39:07.337Z,34.06
2022-07-29T10:41:57.623Z,32.90
2022-07-29T10:44:26.593Z,32.53
2022-07-29T10:46:54.606Z,32.97
2022-07-29T10:49:25.849Z,32.77
2022-07-29T10:52:10.566Z,32.37
2022-07-29T10:54:38.048Z,33.60
2022-07-29T10:57:12.726Z,33.75
2022-07-29T10:59:40.249Z,32.32
2022-07-29T11:02:41.440Z,33.99
2022-07-29T11:05:14.928Z,32.99
2022-07-29T11:08:20.188Z,33.63
2022-07-29T11:10:49.707Z,33.75
2022-07-29T11:13:44.426Z,33.96
2022-07-29T11:16:11.265Z,34.08
2022-07-29T11:19:13.072Z,34.93
2022-07-29T11:21:53.496Z,34.03
2022-07-29T11:24:32.161Z,33.37
2022-07-29T11:27:13.226Z,32.19
2022-07-29T11:29:58.616Z,32.92
2022-07-29T11:32:29.487Z,33.18
2022-07-29T11:35:17.061Z,33.91
2022-07-29T11:37:52.551Z,32.50
2022-07-29T11:40:23.272Z,32.79
2022-07-29T11:42:52.011Z,32.00
2022-07-29T11:45:42.624Z,32.81
2022-07-29T11:48:29.411Z,33.19
2022-07-29T11:50:59.606Z,32.66
2022-07-29T11:53:29.067Z,33.58
2022-07-29T11:56:00.200Z,32.05
2022-07-29T11:58:28.680Z,31.88
2022-07-29T12:00:56.466Z,32.29
2022-07-29T12:03:34.814Z,32.65
2022-07-29T12:06:02.915Z,31.28
2022-07-29T12:08:30.866Z,31.07
2022-07-29T12:10:57.763Z,32.02
2022-07-29T12:13:31.197Z,31.91
2022-07-29T12:16:04.393Z,31.40
2022-07-29T12:18:31.143Z,31.49
2022-07-29T12:21:03.427Z,30.80
2022-07-29T12:23:34.281Z,31.99
2022-07-29T12:26:07.462Z,31.02
2022-07-29T12:28:39.714Z,31.96
2022-07-29T12:31:08.100Z,30.48
2022-07-29T12:33:36.011Z,30.50
2022-07-29T12:36:10.371Z,30.74
2022-07-29T12:38:41.593Z,31.76
2022-07-29T12:41:08.492Z,31.79
2022-07-29T12:43:35.411Z,31.33
2022-07-29T12:46:14.210Z,30.47
2022-07-29T12:48:43.501Z,30.80
2022-07-29T12:51:12.726Z,30.24
2022-07-29T12:53:39.874Z,30.56
2022-07-29T12:56:26.611Z,30.34
2022-07-29T12:58:54.919Z,30.04
2022-07-29T13:01:22.163Z,30.03
2022-07-29T13:03:57.391Z,29.42
2022-07-29T13:06:59.803Z,30.01
2022-07-29T13:09:39.549Z,29.41
2022-07-29T13:12:11.884Z,29.22
2022-07-29T13:14:41.317Z,30.36
2022-07-29T13:17:09.591Z,31.27
2022-07-29T13:19:54.020Z,31.23
2022-07-29T13:22:22.891Z,31.63
2022-07-29T13:24:50.978Z,30.94
2022-07-29T13:27:19.620Z,31.99
2022-07-29T13:29:46.376Z,31.03
2022-07-29T13:32:14.153Z,31.97
2022-07-29T13:34:41.854Z,32.48
2022-07-29T13:37:08.650Z,31.50
2022-07-29T13:39:35.438Z,32.24
2022-07-29T13:42:02.210Z,32.42
2022-07-29T13:44:28.933Z,32.66
2022-07-29T13:46:57.970Z,32.95
2022-07-29T13:49:24.669Z,32.76
2022-07-29T13:51:51.480Z,32.25
2022-07-29T13:54:18.207Z,32.68
2022-07-29T13:56:46.217Z,32.55
2022-07-29T13:59:13.806Z,32.98
2022-07-29T14:01:43.113Z,33.69
2022-07-29T14:04:10.853Z,33.70
2022-07-29T14:06:40.486Z,33.53
2022-07-29T14:09:07.397Z,33.41
2022-07-29T14:11:39.360Z,33.63
2022-07-29T14:14:06.231Z,34.64
2022-07-29T14:16:33.162Z,34.03
2022-07-29T14:19:00.994Z,34.27
2022-07-29T14:21:29.593Z,34.94
2022-07-29T14:23:58.186Z,36.08
2022-07-29T14:26:24.969Z,36.64
2022-07-29T14:28:51.777Z,36.72
2022-07-29T14:31:18.606Z,37.49
2022-07-29T14:33:46.123Z,37.55
2022-07-29T14:36:16.258Z,39.02
2022-07-29T14:38:43.117Z,40.19
2022-07-29T14:41:09.902Z,41.90
2022-07-29T14:43:36.583Z,43.14
2022-07-29T14:46:08.190Z,44.27
2022-07-29T14:48:36.011Z,45.64
2022-07-29T14:51:04.878Z,46.26
2022-07-29T14:53:32.685Z,47.34
2022-07-29T14:56:10.270Z,47.70
2022-07-29T14:58:51.579Z,49.03
2022-07-29T15:01:18.618Z,50.44
2022-07-29T15:03:45.582Z,52.40
2022-07-29T15:06:12.497Z,53.35
2022-07-29T15:08:39.278Z,54.73
2022-07-29T15:11:06.174Z,55.08
2022-07-29T15:13:34.005Z,55.77
2022-07-29T15:16:00.802Z,56.72
2022-07-29T15:18:27.576Z,56.58
2022-07-29T15:20:54.548Z,57.10
2022-07-29T15:23:21.307Z,57.97
2022-07-29T15:25:48.184Z,58.36
2022-07-29T15:28:14.985Z,60.00
2022-07-29T15:30:41.934Z,59.73
2022-07-29T15:33:10.483Z,59.90
2022-07-29T15:35:40.451Z,60.88
2022-07-29T15:38:08.176Z,61.64
2022-07-29T15:40:35.153Z,62.41
2022-07-29T15:43:06.642Z,61.55
2022-07-29T15:45:40.494Z,62.42
2022-07-29T15:48:09.028Z,62.42
2022-07-29T15:50:35.951Z,61.99
2022-07-29T15:53:02.757Z,59.73
2022-07-29T15:55:29.563Z,60.70
2022-07-29T15:58:00.443Z,60.44
2022-07-29T16:00:27.873Z,60.68
2022-07-29T16:02:54.550Z,60.10
2022-07-29T16:05:21.519Z,59.70
2022-07-29T16:07:48.247Z,59.10
2022-07-29T16:10:15.488Z,59.25
2022-07-29T16:12:42.221Z,58.80
2022-07-29T16:15:10.862Z,59.08
2022-07-29T16:17:38.932Z,58.54
2022-07-29T16:20:06.609Z,58.23
2022-07-29T16:22:33.425Z,57.70
2022-07-29T16:25:00.234Z,57.51
2022-07-29T16:27:35.450Z,57.52
2022-07-29T16:30:08.282Z,58.01
2022-07-29T16:32:35.289Z,57.69
2022-07-29T16:35:05.358Z,57.60
2022-07-29T16:37:35.518Z,57.38
2022-07-29T16:40:07.127Z,57.17
2022-07-29T16:42:46.766Z,57.07
2022-07-29T16:45:15.642Z,57.70
2022-07-29T16:47:42.477Z,58.27
2022-07-29T16:50:09.526Z,57.51
2022-07-29T16:52:37.627Z,57.30
2022-07-29T16:55:04.859Z,56.48
2022-07-29T16:57:31.655Z,57.63
2022-07-29T16:59:58.825Z,57.44
2022-07-29T17:02:25.620Z,57.93
2022-07-29T17:04:52.419Z,57.49
2022-07-29T17:07:19.121Z,56.61
2022-07-29T17:09:45.896Z,57.71
2022-07-29T17:12:12.663Z,57.31
2022-07-29T17:14:39.468Z,57.74
2022-07-29T17:17:13.734Z,57.91
2022-07-29T17:19:43.480Z,57.83
2022-07-29T17:22:15.605Z,57.38
2022-07-29T17:24:46.316Z,57.35
2022-07-29T17:27:13.994Z,57.43
2022-07-29T17:29:41.551Z,57.27
2022-07-29T17:32:09.472Z,57.45
2022-07-29T17:34:41.052Z,57.56
2022-07-29T17:37:09.569Z,56.19
2022-07-29T17:39:37.251Z,56.16
2022-07-29T17:42:04.540Z,55.19
2022-07-29T17:44:31.537Z,55.71
2022-07-29T17:47:00.538Z,56.13
2022-07-29T17:49:28.144Z,55.67
2022-07-29T17:51:59.014Z,55.95
2022-07-29T17:54:27.585Z,56.59
2022-07-29T17:56:54.367Z,57.26
2022-07-29T17:59:21.814Z,57.51
2022-07-29T18:01:48.743Z,57.51
2022-07-29T18:04:20.128Z,57.11
2022-07-29T18:06:47.133Z,57.04
2022-07-29T18:09:13.905Z,57.14
2022-07-29T18:11:40.685Z,56.86
2022-07-29T18:14:11.601Z,56.95
2022-07-29T18:16:38.633Z,56.57
2022-07-29T18:19:05.560Z,56.85
2022-07-29T18:21:38.145Z,56.79
2022-07-29T18:24:18.891Z,56.77
2022-07-29T18:26:45.945Z,56.78
2022-07-29T18:29:12.820Z,56.77
2022-07-29T18:31:41.212Z,56.52
2022-07-29T18:34:08.148Z,55.94
2022-07-29T18:36:34.903Z,56.69
2022-07-29T18:39:01.633Z,56.15
2022-07-29T18:41:29.174Z,56.36
2022-07-29T18:43:55.882Z,56.61
2022-07-29T18:46:22.663Z,56.64
2022-07-29T18:48:49.987Z,57.25
2022-07-29T18:51:16.747Z,56.92
2022-07-29T18:53:44.362Z,56.83
2022-07-29T18:56:11.083Z,57.45
2022-07-29T18:58:38.863Z,57.07
2022-07-29T19:01:06.189Z,56.18
2022-07-29T19:03:32.904Z,56.00
2022-07-29T19:05:59.717Z,56.07
2022-07-29T19:08:26.416Z,57.01
2022-07-29T19:10:53.393Z,57.22
2022-07-29T19:13:20.141Z,57.69
2022-07-29T19:15:46.932Z,58.38
2022-07-29T19:18:13.847Z,58.67
2022-07-29T19:20:41.955Z,58.57
2022-07-29T19:23:09.430Z,58.62
2022-07-29T19:25:37.414Z,58.71
2022-07-29T19:28:21.613Z,58.62
2022-07-29T19:30:49.093Z,58.57
2022-07-29T19:33:17.654Z,58.27
2022-07-29T19:35:49.371Z,59.02
2022-07-29T19:38:19.726Z,59.01
2022-07-29T19:40:46.631Z,58.91
2022-07-29T19:43:51.528Z,58.73
2022-07-29T19:46:00.557Z,58.88
2022-07-29T19:48:27.301Z,59.33
2022-07-29T19:50:54.012Z,59.64
2022-07-29T19:53:21.032Z,59.60
2022-07-29T19:55:50.656Z,60.23
2022-07-29T19:58:17.402Z,60.73
2022-07-29T20:00:44.212Z,60.84
2022-07-29T20:03:11.069Z,61.26
2022-07-29T20:05:37.827Z,61.17
2022-07-29T20:08:06.270Z,61.25
2022-07-29T20:10:33.733Z,61.54
2022-07-29T20:13:00.641Z,61.95
2022-07-29T20:15:27.381Z,61.97
2022-07-29T20:17:57.341Z,62.16
2022-07-29T20:20:25.234Z,62.42
2022-07-29T20:22:53.057Z,62.33
2022-07-29T20:25:19.826Z,62.26
2022-07-29T20:27:46.598Z,62.37
2022-07-29T20:30:14.570Z,62.48
2022-07-29T20:32:41.623Z,62.63
2022-07-29T20:35:10.033Z,62.96
2022-07-29T20:37:52.417Z,63.81
2022-07-29T20:40:24.314Z,64.10
2022-07-29T20:42:51.084Z,64.59
2022-07-29T20:45:19.968Z,64.75
2022-07-29T20:47:46.777Z,64.22
2022-07-29T20:50:13.528Z,64.40
2022-07-29T20:52:41.194Z,65.06
2022-07-29T20:55:09.106Z,65.89
2022-07-29T20:57:39.017Z,67.04
2022-07-29T21:00:07.187Z,67.37
2022-07-29T21:02:34.558Z,67.53
2022-07-29T21:05:01.327Z,67.99
2022-07-29T21:07:28.084Z,67.94
2022-07-29T21:09:55.042Z,67.95
2022-07-29T21:12:22.368Z,68.01
2022-07-29T21:14:49.464Z,68.39
2022-07-29T21:17:19.353Z,68.38
2022-07-29T21:19:50.674Z,68.97
2022-07-29T21:22:18.932Z,69.34
2022-07-29T21:24:45.672Z,69.42
2022-07-29T21:27:31.063Z,69.74
2022-07-29T21:29:57.761Z,70.24
2022-07-29T21:32:27.425Z,70.16
2022-07-29T21:34:57.378Z,70.16
2022-07-29T21:37:24.183Z,69.82
2022-07-29T21:39:50.934Z,69.82
2022-07-29T21:42:17.658Z,69.79
2022-07-29T21:44:44.363Z,69.69
2022-07-29T21:47:11.867Z,69.29
2022-07-29T21:49:39.142Z,69.80
2022-07-29T21:52:06.227Z,69.89
2022-07-29T21:54:34.967Z,69.99
2022-07-29T21:57:01.930Z,70.10
2022-07-29T21:59:29.417Z,70.12
2022-07-29T22:01:56.550Z,70.10
2022-07-29T22:04:23.585Z,70.18
2022-07-29T22:06:50.357Z,70.28
2022-07-29T22:09:17.066Z,70.30
2022-07-29T22:11:43.901Z,70.03
2022-07-29T22:14:10.701Z,69.73
2022-07-29T22:16:37.470Z,69.85
2022-07-29T22:19:04.417Z,70.28
2022-07-29T22:21:31.203Z,70.59
2022-07-29T22:23:58.134Z,70.73
2022-07-29T22:26:24.971Z,71.01
2022-07-29T22:28:51.839Z,71.46
2022-07-29T22:31:18.769Z,71.81
2022-07-29T22:33:45.521Z,71.12
2022-07-29T22:36:12.251Z,71.31
2022-07-29T22:38:39.123Z,71.59
2022-07-29T22:41:05.860Z,71.84
2022-07-29T22:43:32.552Z,72.47
2022-07-29T22:45:59.535Z,73.03
2022-07-29T22:48:26.612Z,73.36
2022-07-29T22:50:53.352Z,73.60
2022-07-29T22:53:20.371Z,73.49
2022-07-29T22:55:47.122Z,73.52
2022-07-29T22:58:13.800Z,73.88
2022-07-29T23:00:41.328Z,74.10
2022-07-29T23:03:08.084Z,74.09
2022-07-29T23:05:34.878Z,74.28
2022-07-29T23:08:01.729Z,74.23
2022-07-29T23:10:28.707Z,74.57
2022-07-29T23:12:55.426Z,74.81
2022-07-29T23:15:23.076Z,75.15
2022-07-29T23:17:49.932Z,75.60
2022-07-29T23:20:16.769Z,76.58
2022-07-29T23:22:43.528Z,77.03
2022-07-29T23:25:10.306Z,77.56
2022-07-29T23:27:37.021Z,77.71
2022-07-29T23:30:04.960Z,78.32
2022-07-29T23:32:31.751Z,78.72
2022-07-29T23:34:58.557Z,78.89
2022-07-29T23:37:26.820Z,79.14
2022-07-29T23:39:53.938Z,79.36
2022-07-29T23:42:23.898Z,79.21
2022-07-29T23:44:51.108Z,79.17
2022-07-29T23:47:18.118Z,78.95
2022-07-29T23:49:46.166Z,78.48
2022-07-29T23:52:12.912Z,78.06
2022-07-29T23:54:39.641Z,78.00
2022-07-29T23:57:06.415Z,77.77
2022-07-29T23:59:33.119Z,77.60
